createdAt,value
2022-11-13T00:00:12.558Z,98.45
2022-11-13T00:02:59.579Z,98.11
2022-11-13T00:05:46.152Z,98.16
2022-11-13T00:08:34.811Z,98.98
2022-11-13T00:11:22.428Z,99.31
2022-11-13T00:14:09.385Z,98.96
2022-11-13T00:16:55.945Z,99.84
2022-11-13T00:19:42.631Z,99.65
2022-11-13T00:22:29.502Z,99.02
2022-11-13T00:25:17.761Z,99.03
2022-11-13T00:28:04.574Z,99.14
2022-11-13T00:30:51.392Z,98.57
2022-11-13T00:34:05.167Z,98.55
2022-11-13T00:36:44.804Z,98.59
2022-11-13T00:39:31.477Z,98.60
2022-11-13T00:42:19.553Z,98.70
2022-11-13T00:45:09.015Z,98.60
2022-11-13T00:47:55.608Z,97.79
2022-11-13T00:50:42.322Z,97.89
2022-11-13T00:53:29.155Z,99.10
2022-11-13T00:56:15.907Z,100.00
2022-11-13T00:59:04.294Z,98.92
2022-11-13T01:01:51.035Z,98.79
2022-11-13T01:04:37.828Z,98.27
2022-11-13T01:07:30.863Z,98.33
2022-11-13T01:10:17.585Z,98.82
2022-11-13T01:13:04.332Z,98.82
2022-11-13T01:15:52.269Z,97.29
2022-11-13T01:18:39.708Z,97.34
2022-11-13T01:21:28.969Z,97.95
2022-11-13T01:24:15.946Z,97.64
2022-11-13T01:27:02.957Z,98.82
2022-11-13T01:29:49.507Z,97.88
2022-11-13T01:32:37.732Z,97.70
2022-11-13T01:35:24.363Z,98.51
2022-11-13T01:38:11.120Z,98.31
2022-11-13T01:40:57.917Z,98.43
2022-11-13T01:43:44.735Z,98.28
2022-11-13T01:46:34.441Z,97.49
2022-11-13T01:49:30.132Z,97.82
2022-11-13T01:52:21.321Z,96.96
2022-11-13T01:55:12.923Z,97.72
2022-11-13T01:58:00.243Z,97.10
2022-11-13T02:00:47.008Z,97.48
2022-11-13T02:03:34.064Z,97.19
2022-11-13T02:06:22.911Z,97.03
2022-11-13T02:09:11.167Z,96.82
2022-11-13T02:11:58.848Z,97.93
2022-11-13T02:14:48.867Z,98.38
2022-11-13T02:17:42.751Z,98.89
2022-11-13T02:20:37.183Z,99.71
2022-11-13T02:23:37.364Z,99.44
2022-11-13T02:26:27.639Z,99.29
2022-11-13T02:29:14.362Z,98.47
2022-11-13T02:32:01.097Z,98.73
2022-11-13T02:34:47.949Z,99.65
2022-11-13T02:37:34.482Z,98.81
2022-11-13T02:40:21.400Z,98.05
2022-11-13T02:43:09.734Z,98.59
2022-11-13T02:45:56.789Z,98.48
2022-11-13T02:48:43.932Z,97.75
2022-11-13T02:51:31.009Z,98.21
2022-11-13T02:54:17.490Z,97.29
2022-11-13T02:57:04.126Z,97.18
2022-11-13T02:59:52.837Z,97.48
2022-11-13T03:02:39.694Z,97.37
2022-11-13T03:05:35.622Z,96.77
2022-11-13T03:08:24.173Z,96.29
2022-11-13T03:11:12.496Z,96.78
2022-11-13T03:13:59.319Z,97.12
2022-11-13T03:16:52.620Z,97.86
2022-11-13T03:19:39.761Z,98.06
2022-11-13T03:22:26.706Z,98.68
2022-11-13T03:25:13.580Z,99.07
2022-11-13T03:28:00.738Z,98.92
2022-11-13T03:30:48.997Z,98.62
2022-11-13T03:33:37.263Z,99.90
2022-11-13T03:36:24.200Z,100.00
2022-11-13T03:39:11.205Z,100.00
2022-11-13T03:42:04.298Z,100.00
2022-11-13T03:44:51.368Z,100.00
2022-11-13T03:47:38.068Z,100.00
2022-11-13T03:50:26.030Z,99.75
2022-11-13T03:53:12.910Z,99.56
2022-11-13T03:55:59.876Z,99.72
2022-11-13T03:58:49.596Z,99.00
2022-11-13T04:01:36.805Z,99.21
2022-11-13T04:04:23.707Z,99.68
2022-11-13T04:07:11.972Z,98.17
2022-11-13T04:09:58.653Z,99.35
2022-11-13T04:12:45.417Z,98.07
2022-11-13T04:15:32.007Z,98.89
2022-11-13T04:18:18.839Z,98.73
2022-11-13T04:21:06.908Z,98.28
2022-11-13T04:23:55.411Z,97.86
2022-11-13T04:26:42.248Z,98.72
2022-11-13T04:29:28.930Z,98.24
2022-11-13T04:32:15.787Z,97.66
2022-11-13T04:35:02.436Z,97.61
2022-11-13T04:37:49.073Z,97.81
2022-11-13T04:40:37.144Z,97.24
2022-11-13T04:43:22.957Z,97.70
2022-11-13T04:46:09.928Z,97.10
2022-11-13T04:48:57.119Z,97.09
2022-11-13T04:51:43.637Z,96.84
2022-11-13T04:54:30.274Z,96.41
2022-11-13T04:57:18.207Z,97.95
2022-11-13T05:00:07.679Z,97.90
2022-11-13T05:02:54.380Z,97.12
2022-11-13T05:05:41.767Z,98.17
2022-11-13T05:08:28.683Z,98.08
2022-11-13T05:11:15.383Z,97.59
2022-11-13T05:14:03.932Z,97.46
2022-11-13T05:16:51.645Z,98.69
2022-11-13T05:19:38.600Z,97.29
2022-11-13T05:22:25.194Z,97.69
2022-11-13T05:25:12.054Z,97.70
2022-11-13T05:27:59.199Z,97.58
2022-11-13T05:30:47.705Z,97.69
2022-11-13T05:33:35.085Z,98.06
2022-11-13T05:36:22.397Z,97.51
2022-11-13T05:39:09.470Z,98.37
2022-11-13T05:41:56.067Z,98.69
2022-11-13T05:44:42.844Z,97.28
2022-11-13T05:47:30.990Z,97.93
2022-11-13T05:50:18.186Z,97.35
2022-11-13T05:53:04.899Z,98.03
2022-11-13T05:55:51.667Z,97.71
2022-11-13T05:58:38.866Z,99.40
2022-11-13T06:01:28.870Z,100.00
2022-11-13T06:04:17.009Z,98.86
2022-11-13T06:07:03.748Z,100.00
2022-11-13T06:09:50.815Z,99.95
2022-11-13T06:12:37.544Z,99.18
2022-11-13T06:15:24.339Z,100.00
2022-11-13T06:18:11.031Z,100.00
2022-11-13T06:21:03.270Z,99.77
2022-11-13T06:23:50.331Z,100.00
2022-11-13T06:26:38.784Z,100.00
2022-11-13T06:29:25.809Z,100.00
2022-11-13T06:32:12.418Z,99.43
2022-11-13T06:34:59.177Z,100.00
2022-11-13T06:37:47.212Z,100.00
2022-11-13T06:40:34.195Z,99.92
2022-11-13T06:43:20.797Z,100.00
2022-11-13T06:46:11.691Z,100.00
2022-11-13T06:48:59.246Z,99.92
2022-11-13T06:51:45.972Z,100.00
2022-11-13T06:54:37.921Z,100.00
2022-11-13T06:57:24.624Z,100.00
2022-11-13T07:00:13.682Z,100.00
2022-11-13T07:03:00.700Z,100.00
2022-11-13T07:05:48.487Z,100.00
2022-11-13T07:08:35.601Z,99.13
2022-11-13T07:11:24.810Z,99.04
2022-11-13T07:14:13.421Z,99.02
2022-11-13T07:17:14.892Z,98.84
2022-11-13T07:20:01.922Z,98.44
2022-11-13T07:22:48.555Z,99.18
2022-11-13T07:25:35.477Z,99.07
2022-11-13T07:28:23.750Z,96.70
2022-11-13T07:31:12.455Z,96.90
2022-11-13T07:33:59.378Z,97.42
2022-11-13T07:36:46.039Z,95.78
2022-11-13T07:39:32.763Z,96.15
2022-11-13T07:42:19.300Z,95.02
2022-11-13T07:45:08.660Z,95.55
2022-11-13T07:48:00.199Z,94.59
2022-11-13T07:50:46.821Z,93.76
2022-11-13T07:53:35.703Z,92.36
2022-11-13T07:56:23.426Z,91.78
2022-11-13T07:59:10.179Z,91.17
2022-11-13T08:01:58.232Z,91.76
2022-11-13T08:04:44.996Z,89.30
2022-11-13T08:07:31.628Z,90.00
2022-11-13T08:10:20.406Z,89.62
2022-11-13T08:13:10.796Z,88.16
2022-11-13T08:16:01.131Z,88.29
2022-11-13T08:18:49.202Z,88.32
2022-11-13T08:21:37.169Z,87.24
2022-11-13T08:24:24.023Z,86.86
2022-11-13T08:27:10.858Z,86.66
2022-11-13T08:29:57.380Z,85.97
2022-11-13T08:32:44.073Z,85.96
2022-11-13T08:35:32.587Z,85.38
2022-11-13T08:38:19.699Z,85.25
2022-11-13T08:41:09.667Z,84.82
2022-11-13T08:43:56.741Z,84.09
2022-11-13T08:46:43.453Z,83.42
2022-11-13T08:49:30.030Z,81.99
2022-11-13T08:52:18.401Z,81.41
2022-11-13T08:55:06.061Z,81.56
2022-11-13T08:57:53.237Z,80.07
2022-11-13T09:00:39.913Z,79.34
2022-11-13T09:03:27.055Z,78.82
2022-11-13T09:06:14.012Z,76.90
2022-11-13T09:09:02.380Z,77.35
2022-11-13T09:11:49.377Z,75.86
2022-11-13T09:14:36.781Z,76.32
2022-11-13T09:17:23.898Z,74.55
2022-11-13T09:20:13.950Z,75.27
2022-11-13T09:23:03.367Z,75.89
2022-11-13T09:25:51.345Z,73.94
2022-11-13T09:28:38.226Z,72.44
2022-11-13T09:31:24.944Z,72.18
2022-11-13T09:34:11.617Z,73.28
2022-11-13T09:36:58.252Z,74.13
2022-11-13T09:39:44.838Z,73.55
2022-11-13T09:42:34.493Z,74.12
2022-11-13T09:45:21.242Z,74.71
2022-11-13T09:48:29.399Z,73.68
2022-11-13T09:51:20.389Z,74.70
2022-11-13T09:54:14.997Z,72.11
2022-11-13T09:57:13.735Z,71.19
2022-11-13T10:00:06.791Z,72.97
2022-11-13T10:03:09.997Z,70.72
2022-11-13T10:06:05.472Z,73.32
2022-11-13T10:08:58.530Z,71.48
2022-11-13T10:11:50.570Z,70.94
2022-11-13T10:14:44.014Z,70.77
2022-11-13T10:17:36.845Z,71.14
2022-11-13T10:20:26.855Z,70.95
2022-11-13T10:23:21.349Z,71.45
2022-11-13T10:26:16.948Z,70.90
2022-11-13T10:29:11.987Z,71.19
2022-11-13T10:31:59.361Z,70.67
2022-11-13T10:34:52.374Z,69.34
2022-11-13T10:37:56.650Z,69.40
2022-11-13T10:40:43.866Z,68.81
2022-11-13T10:43:30.979Z,67.96
2022-11-13T10:46:21.826Z,68.29
2022-11-13T10:49:19.737Z,68.39
2022-11-13T10:52:21.105Z,67.41
2022-11-13T10:55:19.106Z,67.63
2022-11-13T10:58:15.441Z,68.16
2022-11-13T11:01:02.301Z,65.89
2022-11-13T11:03:53.060Z,65.23
2022-11-13T11:07:18.370Z,65.61
2022-11-13T11:09:52.340Z,65.57
2022-11-13T11:12:39.225Z,65.88
2022-11-13T11:15:32.519Z,64.54
2022-11-13T11:18:28.211Z,66.07
2022-11-13T11:21:19.939Z,65.14
2022-11-13T11:24:15.432Z,62.99
2022-11-13T11:27:11.705Z,62.39
2022-11-13T11:30:06.786Z,62.15
2022-11-13T11:33:06.309Z,63.19
2022-11-13T11:36:00.483Z,62.19
2022-11-13T11:38:57.139Z,62.22
2022-11-13T11:41:52.239Z,61.27
2022-11-13T11:44:56.606Z,60.33
2022-11-13T11:47:43.386Z,61.44
2022-11-13T11:50:44.155Z,60.81
2022-11-13T11:53:43.107Z,61.41
2022-11-13T11:56:36.200Z,62.55
2022-11-13T12:00:02.910Z,60.67
2022-11-13T12:03:49.630Z,60.68
2022-11-13T12:06:52.722Z,59.50
2022-11-13T12:09:47.262Z,59.89
2022-11-13T12:12:52.526Z,59.82
2022-11-13T12:15:48.387Z,58.37
2022-11-13T12:18:50.538Z,57.48
2022-11-13T12:21:50.733Z,57.63
2022-11-13T12:24:55.674Z,57.98
2022-11-13T12:27:49.238Z,58.23
2022-11-13T12:30:48.687Z,58.42
2022-11-13T12:33:44.137Z,55.70
2022-11-13T12:36:31.757Z,54.39
2022-11-13T12:39:39.405Z,54.17
2022-11-13T12:42:35.852Z,54.91
2022-11-13T12:45:31.280Z,54.04
2022-11-13T12:48:34.992Z,53.13
2022-11-13T12:51:22.071Z,53.53
2022-11-13T12:54:11.763Z,53.59
2022-11-13T12:57:28.610Z,53.30
2022-11-13T13:00:27.496Z,52.99
2022-11-13T13:03:48.050Z,53.35
2022-11-13T13:07:06.263Z,52.23
2022-11-13T13:10:07.140Z,52.45
2022-11-13T13:13:05.834Z,52.37
2022-11-13T13:15:57.976Z,52.26
2022-11-13T13:18:45.939Z,51.02
2022-11-13T13:21:42.715Z,51.69
2022-11-13T13:24:34.058Z,50.50
2022-11-13T13:27:26.550Z,49.63
2022-11-13T13:30:22.526Z,49.91
2022-11-13T13:33:22.059Z,50.12
2022-11-13T13:36:23.104Z,50.27
2022-11-13T13:39:26.378Z,49.70
2022-11-13T13:42:30.884Z,50.78
2022-11-13T13:45:33.843Z,50.41
2022-11-13T13:48:30.470Z,50.01
2022-11-13T13:51:27.701Z,50.02
2022-11-13T13:54:24.169Z,49.40
2022-11-13T13:57:16.350Z,49.94
2022-11-13T14:00:03.233Z,49.57
2022-11-13T14:02:52.697Z,49.65
2022-11-13T14:05:39.938Z,48.83
2022-11-13T14:08:29.368Z,49.11
2022-11-13T14:11:21.935Z,49.21
2022-11-13T14:14:10.746Z,48.56
2022-11-13T14:17:00.467Z,48.69
2022-11-13T14:19:51.604Z,47.90
2022-11-13T14:22:38.920Z,47.97
2022-11-13T14:25:30.146Z,48.00
2022-11-13T14:28:19.327Z,49.35
2022-11-13T14:31:08.418Z,49.56
2022-11-13T14:33:55.395Z,49.72
2022-11-13T14:36:42.093Z,49.92
2022-11-13T14:39:34.292Z,49.48
2022-11-13T14:42:28.911Z,49.94
2022-11-13T14:45:20.310Z,50.89
2022-11-13T14:48:20.400Z,50.87
2022-11-13T14:51:23.802Z,51.28
2022-11-13T14:55:00.264Z,52.01
2022-11-13T14:57:50.418Z,52.71
2022-11-13T15:00:39.565Z,53.87
2022-11-13T15:03:28.076Z,55.11
2022-11-13T15:06:18.101Z,56.75
2022-11-13T15:09:06.687Z,58.01
2022-11-13T15:11:54.019Z,58.36
2022-11-13T15:14:45.420Z,58.78
2022-11-13T15:17:33.474Z,59.60
2022-11-13T15:20:24.666Z,61.72
2022-11-13T15:23:15.155Z,62.72
2022-11-13T15:26:02.036Z,63.05
2022-11-13T15:28:48.668Z,63.85
2022-11-13T15:31:39.670Z,64.93
2022-11-13T15:34:26.844Z,65.28
2022-11-13T15:37:14.861Z,65.97
2022-11-13T15:40:01.960Z,66.46
2022-11-13T15:42:49.205Z,67.37
2022-11-13T15:45:39.856Z,67.63
2022-11-13T15:48:31.389Z,67.67
2022-11-13T15:51:22.101Z,68.74
2022-11-13T15:54:16.987Z,69.51
2022-11-13T15:57:04.072Z,69.88
2022-11-13T15:59:51.043Z,70.60
2022-11-13T16:02:39.022Z,71.11
2022-11-13T16:05:29.686Z,71.75
2022-11-13T16:08:17.126Z,71.25
2022-11-13T16:11:03.903Z,71.67
2022-11-13T16:13:50.637Z,71.89
2022-11-13T16:16:40.749Z,73.42
2022-11-13T16:19:27.672Z,72.28
2022-11-13T16:22:22.490Z,73.63
2022-11-13T16:25:12.751Z,73.11
2022-11-13T16:27:59.929Z,73.90
2022-11-13T16:30:47.927Z,74.80
2022-11-13T16:33:37.069Z,75.35
2022-11-13T16:36:24.119Z,74.19
2022-11-13T16:39:16.997Z,76.13
2022-11-13T16:42:03.670Z,76.49
2022-11-13T16:44:50.303Z,75.84
2022-11-13T16:47:36.952Z,75.28
2022-11-13T16:50:28.306Z,75.31
2022-11-13T16:53:15.197Z,75.61
2022-11-13T16:56:03.562Z,75.20
2022-11-13T16:58:50.208Z,74.53
2022-11-13T17:01:36.717Z,74.84
2022-11-13T17:04:34.361Z,75.33
2022-11-13T17:07:22.943Z,75.44
2022-11-13T17:10:30.866Z,75.48
2022-11-13T17:13:20.065Z,76.39
2022-11-13T17:16:07.420Z,77.11
2022-11-13T17:18:55.642Z,77.28
2022-11-13T17:21:44.342Z,77.83
2022-11-13T17:24:31.618Z,78.73
2022-11-13T17:27:18.768Z,78.19
2022-11-13T17:30:09.428Z,78.10
2022-11-13T17:32:56.579Z,78.53
2022-11-13T17:35:46.335Z,79.05
2022-11-13T17:38:33.568Z,78.76
2022-11-13T17:41:20.838Z,78.88
2022-11-13T17:44:08.101Z,79.41
2022-11-13T17:46:56.057Z,79.55
2022-11-13T17:49:42.792Z,79.91
2022-11-13T17:52:29.555Z,80.49
2022-11-13T17:55:17.317Z,80.54
2022-11-13T17:58:04.599Z,80.62
2022-11-13T18:00:52.341Z,80.58
2022-11-13T18:03:42.626Z,80.41
2022-11-13T18:06:29.287Z,80.76
2022-11-13T18:09:15.982Z,80.11
2022-11-13T18:12:02.583Z,79.99
2022-11-13T18:14:52.409Z,80.02
2022-11-13T18:17:39.151Z,79.69
2022-11-13T18:20:27.879Z,80.42
2022-11-13T18:23:14.785Z,80.55
2022-11-13T18:26:09.669Z,80.51
2022-11-13T18:28:57.113Z,81.10
2022-11-13T18:31:44.397Z,81.59
2022-11-13T18:34:31.390Z,81.84
2022-11-13T18:37:19.745Z,81.68
2022-11-13T18:40:08.543Z,82.88
2022-11-13T18:42:55.227Z,82.89
2022-11-13T18:45:42.055Z,83.36
2022-11-13T18:48:31.911Z,83.65
2022-11-13T18:51:21.903Z,84.14
2022-11-13T18:54:11.973Z,84.05
2022-11-13T18:56:58.571Z,83.92
2022-11-13T18:59:45.206Z,84.75
2022-11-13T19:02:31.846Z,84.76
2022-11-13T19:05:18.514Z,84.86
2022-11-13T19:08:05.377Z,85.71
2022-11-13T19:10:53.670Z,85.62
2022-11-13T19:13:42.131Z,85.85
2022-11-13T19:16:33.258Z,86.28
2022-11-13T19:19:23.393Z,86.81
2022-11-13T19:22:10.781Z,87.30
2022-11-13T19:24:57.787Z,88.00
2022-11-13T19:27:46.146Z,88.24
2022-11-13T19:30:32.892Z,88.92
2022-11-13T19:33:19.685Z,89.27
2022-11-13T19:36:16.078Z,90.18
2022-11-13T19:39:04.067Z,90.13
2022-11-13T19:41:51.296Z,90.29
2022-11-13T19:44:39.319Z,90.31
2022-11-13T19:47:26.261Z,90.76
2022-11-13T19:50:14.390Z,90.74
2022-11-13T19:53:01.685Z,91.08
2022-11-13T19:55:56.021Z,91.62
2022-11-13T19:58:44.356Z,91.05
2022-11-13T20:01:32.907Z,91.29
2022-11-13T20:04:20.060Z,91.79
2022-11-13T20:07:07.132Z,91.22
2022-11-13T20:09:54.025Z,91.55
2022-11-13T20:12:40.744Z,91.74
2022-11-13T20:15:27.575Z,91.58
2022-11-13T20:18:17.331Z,91.76
2022-11-13T20:21:04.698Z,91.92
2022-11-13T20:23:53.969Z,91.21
2022-11-13T20:26:41.277Z,90.73
2022-11-13T20:29:28.020Z,91.54
2022-11-13T20:32:14.643Z,90.71
2022-11-13T20:35:02.855Z,90.65
2022-11-13T20:37:49.950Z,89.65
2022-11-13T20:40:36.499Z,89.62
2022-11-13T20:43:23.749Z,89.66
2022-11-13T20:46:13.517Z,89.93
2022-11-13T20:49:01.071Z,89.41
2022-11-13T20:51:51.432Z,88.42
2022-11-13T20:54:40.835Z,88.13
2022-11-13T20:57:27.558Z,88.16
2022-11-13T21:00:15.374Z,88.47
2022-11-13T21:03:02.016Z,88.92
2022-11-13T21:05:59.106Z,88.87
2022-11-13T21:08:49.404Z,88.78
2022-11-13T21:11:36.565Z,89.90
2022-11-13T21:14:23.465Z,90.67
2022-11-13T21:17:10.195Z,89.92
2022-11-13T21:19:57.888Z,90.16
2022-11-13T21:22:44.758Z,89.78
2022-11-13T21:25:33.404Z,90.82
2022-11-13T21:28:24.076Z,90.93
2022-11-13T21:31:17.175Z,91.93
2022-11-13T21:34:04.013Z,92.19
2022-11-13T21:36:50.790Z,91.32
2022-11-13T21:39:37.569Z,91.05
2022-11-13T21:42:25.731Z,91.18
2022-11-13T21:45:12.683Z,90.43
2022-11-13T21:47:59.356Z,90.80
2022-11-13T21:50:45.950Z,89.93
2022-11-13T21:53:32.750Z,90.21
2022-11-13T21:56:19.736Z,90.03
2022-11-13T21:59:08.155Z,89.24
2022-11-13T22:01:54.960Z,91.71
2022-11-13T22:04:41.537Z,90.92
2022-11-13T22:07:28.263Z,89.89
2022-11-13T22:10:15.278Z,91.49
2022-11-13T22:13:02.072Z,91.09
2022-11-13T22:15:50.943Z,91.81
2022-11-13T22:18:37.671Z,91.36
2022-11-13T22:21:26.352Z,91.24
2022-11-13T22:24:14.852Z,91.50
2022-11-13T22:27:01.884Z,91.64
2022-11-13T22:29:48.749Z,91.47
2022-11-13T22:32:36.693Z,91.46
2022-11-13T22:35:23.367Z,91.55
2022-11-13T22:38:10.610Z,90.96
2022-11-13T22:41:02.874Z,92.76
2022-11-13T22:43:51.851Z,92.56
2022-11-13T22:46:38.448Z,92.26
2022-11-13T22:49:26.629Z,92.92
2022-11-13T22:52:13.523Z,92.72
2022-11-13T22:55:00.254Z,91.84
2022-11-13T22:57:47.012Z,91.64
2022-11-13T23:00:33.672Z,91.11
2022-11-13T23:03:20.393Z,89.01
2022-11-13T23:06:14.075Z,90.63
2022-11-13T23:09:01.646Z,89.42
2022-11-13T23:11:48.288Z,89.34
2022-11-13T23:14:35.317Z,88.53
2022-11-13T23:17:22.086Z,88.36
2022-11-13T23:20:13.392Z,87.95
2022-11-13T23:23:01.791Z,87.65
2022-11-13T23:25:48.795Z,88.72
2022-11-13T23:28:35.560Z,88.31
2022-11-13T23:31:22.360Z,89.46
2022-11-13T23:34:09.521Z,90.18
2022-11-13T23:36:56.468Z,90.70
2022-11-13T23:39:44.455Z,92.58
2022-11-13T23:42:53.447Z,92.72
2022-11-13T23:45:38.265Z,92.36
2022-11-13T23:48:26.042Z,94.37
2022-11-13T23:51:12.906Z,92.86
2022-11-13T23:53:59.793Z,92.86
2022-11-13T23:56:47.839Z,93.12
2022-11-13T23:59:34.701Z,93.29
